createdAt,value
2022-09-12T00:02:07.583Z,69.80
2022-09-12T00:04:34.406Z,69.70
2022-09-12T00:07:01.161Z,69.80
2022-09-12T00:09:28.094Z,69.60
2022-09-12T00:11:54.875Z,69.90
2022-09-12T00:14:21.661Z,69.90
2022-09-12T00:16:48.462Z,70.10
2022-09-12T00:19:15.302Z,70.10
2022-09-12T00:21:42.153Z,70.20
2022-09-12T00:24:09.533Z,70.30
2022-09-12T00:26:36.379Z,70.30
2022-09-12T00:29:03.556Z,70.50
2022-09-12T00:31:30.665Z,70.50
2022-09-12T00:33:58.636Z,70.40
2022-09-12T00:36:25.724Z,70.70
2022-09-12T00:38:53.426Z,71.00
2022-09-12T00:41:31.377Z,70.90
2022-09-12T00:43:59.935Z,70.90
2022-09-12T00:46:44.571Z,70.90
2022-09-12T00:49:11.403Z,70.80
2022-09-12T00:51:38.962Z,71.00
2022-09-12T00:54:08.624Z,71.00
2022-09-12T00:56:36.116Z,71.20
2022-09-12T00:59:07.110Z,71.30
2022-09-12T01:01:34.592Z,71.30
2022-09-12T01:04:01.952Z,71.40
2022-09-12T01:06:31.018Z,71.30
2022-09-12T01:08:59.511Z,71.20
2022-09-12T01:11:26.603Z,71.30
2022-09-12T01:13:54.544Z,71.30
2022-09-12T01:16:21.466Z,71.30
2022-09-12T01:18:54.467Z,71.00
2022-09-12T01:21:30.546Z,71.10
2022-09-12T01:24:00.396Z,71.10
2022-09-12T01:26:30.441Z,71.00
2022-09-12T01:29:15.416Z,70.90
2022-09-12T01:32:08.590Z,71.00
2022-09-12T01:34:49.288Z,70.90
2022-09-12T01:37:36.003Z,70.70
2022-09-12T01:40:25.302Z,70.60
2022-09-12T01:42:55.229Z,70.50
2022-09-12T01:45:31.075Z,70.30
2022-09-12T01:48:01.650Z,70.40
2022-09-12T01:50:31.836Z,70.40
2022-09-12T01:53:12.365Z,70.50
2022-09-12T01:55:44.983Z,70.60
2022-09-12T01:58:17.208Z,70.60
2022-09-12T02:00:48.240Z,70.90
2022-09-12T02:03:16.743Z,70.80
2022-09-12T02:05:56.522Z,70.80
2022-09-12T02:08:28.603Z,70.80
2022-09-12T02:11:06.007Z,70.90
2022-09-12T02:16:24.607Z,70.70
2022-09-12T02:18:53.425Z,70.60
2022-09-12T02:21:21.659Z,70.60
2022-09-12T02:23:51.120Z,70.80
2022-09-12T02:26:28.980Z,71.00
2022-09-12T02:31:59.239Z,70.90
2022-09-12T02:34:44.659Z,71.30
2022-09-12T02:37:30.209Z,71.60
2022-09-12T02:39:57.409Z,71.70
2022-09-12T02:42:24.472Z,71.60
2022-09-12T02:44:52.298Z,71.50
2022-09-12T02:47:25.319Z,72.10
2022-09-12T02:49:52.845Z,71.50
2022-09-12T02:52:19.799Z,71.30
2022-09-12T02:54:47.455Z,71.20
2022-09-12T02:57:23.003Z,70.60
2022-09-12T02:59:51.565Z,70.50
2022-09-12T03:02:25.325Z,70.00
2022-09-12T03:05:11.175Z,70.10
2022-09-12T03:07:56.857Z,70.10
2022-09-12T03:10:37.198Z,70.40
2022-09-12T03:13:26.562Z,70.60
2022-09-12T03:16:12.216Z,70.40
2022-09-12T03:18:42.198Z,70.40
2022-09-12T03:21:18.737Z,70.30
2022-09-12T03:23:51.800Z,70.30
2022-09-12T03:26:42.085Z,70.50
2022-09-12T03:29:11.062Z,70.70
2022-09-12T03:31:39.540Z,70.80
2022-09-12T03:34:06.722Z,71.00
2022-09-12T03:36:33.768Z,71.20
2022-09-12T03:39:00.655Z,71.30
2022-09-12T03:41:27.473Z,71.50
2022-09-12T03:43:56.291Z,71.50
2022-09-12T03:46:23.170Z,71.50
2022-09-12T03:48:50.931Z,71.60
2022-09-12T03:51:17.727Z,71.70
2022-09-12T03:53:44.532Z,71.80
2022-09-12T03:56:13.475Z,71.60
2022-09-12T03:58:40.529Z,71.50
2022-09-12T04:01:12.228Z,71.60
2022-09-12T04:03:43.112Z,71.40
2022-09-12T04:06:11.131Z,71.50
2022-09-12T04:08:38.254Z,71.60
2022-09-12T04:11:06.178Z,71.20
2022-09-12T04:13:33.054Z,70.90
2022-09-12T04:16:00.203Z,70.90
2022-09-12T04:18:27.663Z,70.80
2022-09-12T04:20:54.836Z,70.70
2022-09-12T04:23:22.148Z,70.90
2022-09-12T04:25:59.385Z,71.00
2022-09-12T04:28:26.630Z,71.20
2022-09-12T04:30:53.458Z,71.40
2022-09-12T04:33:20.262Z,71.40
2022-09-12T04:35:47.490Z,71.40
2022-09-12T04:38:14.488Z,71.30
2022-09-12T04:40:41.473Z,71.30
2022-09-12T04:43:13.786Z,71.40
2022-09-12T04:45:41.595Z,71.30
2022-09-12T04:48:08.462Z,71.40
2022-09-12T04:50:35.417Z,71.30
2022-09-12T04:53:02.160Z,71.30
2022-09-12T04:55:29.155Z,71.50
2022-09-12T04:57:56.284Z,71.50
2022-09-12T05:00:31.503Z,71.50
2022-09-12T05:03:02.110Z,71.50
2022-09-12T05:05:36.153Z,71.50
2022-09-12T05:08:05.540Z,71.80
2022-09-12T05:10:33.736Z,72.30
2022-09-12T05:13:00.605Z,72.70
2022-09-12T05:15:27.330Z,72.80
2022-09-12T05:17:54.324Z,72.90
2022-09-12T05:20:21.092Z,72.80
2022-09-12T05:22:47.915Z,73.00
2022-09-12T05:25:15.296Z,73.10
2022-09-12T05:27:42.085Z,73.30
2022-09-12T05:30:09.627Z,73.50
2022-09-12T05:32:36.460Z,73.70
2022-09-12T05:35:03.378Z,74.10
2022-09-12T05:37:30.263Z,74.90
2022-09-12T05:39:57.920Z,74.60
2022-09-12T05:42:24.716Z,74.30
2022-09-12T05:44:51.450Z,73.90
2022-09-12T05:47:18.915Z,74.00
2022-09-12T05:49:49.023Z,74.70
2022-09-12T05:52:16.267Z,73.90
2022-09-12T05:54:43.250Z,74.00
2022-09-12T05:57:10.083Z,74.20
2022-09-12T05:59:36.961Z,73.90
2022-09-12T06:02:03.842Z,74.60
2022-09-12T06:04:30.636Z,74.80
2022-09-12T06:06:57.432Z,74.90
2022-09-12T06:09:25.709Z,74.10
2022-09-12T06:11:52.742Z,74.50
2022-09-12T06:14:19.588Z,74.70
2022-09-12T06:16:47.416Z,74.20
2022-09-12T06:19:14.251Z,74.40
2022-09-12T06:21:41.206Z,74.50
2022-09-12T06:24:08.094Z,74.80
2022-09-12T06:26:35.090Z,75.00
2022-09-12T06:29:01.932Z,75.10
2022-09-12T06:34:30.471Z,75.10
2022-09-12T06:36:57.956Z,75.30
2022-09-12T06:39:25.094Z,75.60
2022-09-12T06:41:52.083Z,75.80
2022-09-12T06:44:29.787Z,76.10
2022-09-12T06:47:35.778Z,76.40
2022-09-12T06:50:57.304Z,76.10
2022-09-12T06:54:29.705Z,75.80
2022-09-12T06:57:26.612Z,75.70
2022-09-12T07:00:02.567Z,75.50
2022-09-12T07:02:57.429Z,75.30
2022-09-12T07:05:53.135Z,75.40
2022-09-12T07:08:39.285Z,75.00
2022-09-12T07:11:46.011Z,75.10
2022-09-12T07:17:07.504Z,74.90
2022-09-12T07:19:34.921Z,75.00
2022-09-12T07:22:01.740Z,74.70
2022-09-12T07:24:28.502Z,74.40
2022-09-12T07:26:55.312Z,74.30
2022-09-12T07:29:38.023Z,74.80
2022-09-12T07:32:05.923Z,74.80
2022-09-12T07:34:32.916Z,74.60
2022-09-12T07:36:59.761Z,74.70
2022-09-12T07:39:26.702Z,74.90
2022-09-12T07:41:53.732Z,74.80
2022-09-12T07:44:22.018Z,74.90
2022-09-12T07:46:48.863Z,74.60
2022-09-12T07:49:15.884Z,74.40
2022-09-12T07:51:42.819Z,74.10
2022-09-12T07:54:13.011Z,74.10
2022-09-12T07:56:40.629Z,73.90
2022-09-12T07:59:08.188Z,73.50
2022-09-12T08:01:35.456Z,73.20
2022-09-12T08:04:05.250Z,73.10
2022-09-12T08:06:59.262Z,72.70
2022-09-12T08:09:54.705Z,72.40
2022-09-12T08:12:20.481Z,72.10
2022-09-12T08:14:47.419Z,71.80
2022-09-12T08:17:14.481Z,71.10
2022-09-12T08:19:41.297Z,70.50
2022-09-12T08:22:08.417Z,69.00
2022-09-12T08:24:35.200Z,69.00
2022-09-12T08:27:02.130Z,68.90
2022-09-12T08:29:28.868Z,68.30
2022-09-12T08:31:57.392Z,68.40
2022-09-12T08:34:24.896Z,67.80
2022-09-12T08:36:54.211Z,66.90
2022-09-12T08:39:22.512Z,67.10
2022-09-12T08:41:57.022Z,67.60
2022-09-12T08:44:23.874Z,68.00
2022-09-12T08:47:09.419Z,67.70
2022-09-12T08:49:39.545Z,67.70
2022-09-12T08:52:12.932Z,67.00
2022-09-12T08:54:39.863Z,66.50
2022-09-12T08:57:09.114Z,66.40
2022-09-12T08:59:38.236Z,66.30
2022-09-12T09:02:13.687Z,66.10
2022-09-12T09:04:51.166Z,65.70
2022-09-12T09:07:33.533Z,64.80
2022-09-12T09:10:19.965Z,64.10
2022-09-12T09:12:56.733Z,64.30
2022-09-12T09:15:29.832Z,64.20
2022-09-12T09:18:05.988Z,64.40
2022-09-12T09:20:59.627Z,63.80
2022-09-12T09:23:32.491Z,64.00
2022-09-12T09:26:02.400Z,63.50
2022-09-12T09:28:35.280Z,63.20
2022-09-12T09:31:02.157Z,63.00
2022-09-12T09:33:33.071Z,62.80
2022-09-12T09:36:13.455Z,62.80
2022-09-12T09:38:43.214Z,63.10
2022-09-12T09:41:22.245Z,63.00
2022-09-12T09:43:49.322Z,63.00
2022-09-12T09:46:16.377Z,62.40
2022-09-12T09:48:48.485Z,63.00
2022-09-12T09:51:17.357Z,63.00
2022-09-12T09:53:54.357Z,63.40
2022-09-12T09:56:40.771Z,63.60
2022-09-12T09:59:24.395Z,63.20
2022-09-12T10:01:55.461Z,63.30
2022-09-12T10:04:23.858Z,63.30
2022-09-12T10:06:56.171Z,63.40
2022-09-12T10:09:30.656Z,63.00
2022-09-12T10:11:57.721Z,61.70
2022-09-12T10:14:54.144Z,61.60
2022-09-12T10:17:22.692Z,61.40
2022-09-12T10:20:04.492Z,61.30
2022-09-12T10:22:37.300Z,61.10
2022-09-12T10:25:11.084Z,60.40
2022-09-12T10:27:37.921Z,60.30
2022-09-12T10:30:04.812Z,58.90
2022-09-12T10:32:54.158Z,58.40
2022-09-12T10:35:22.473Z,57.80
2022-09-12T10:37:57.252Z,57.60
2022-09-12T10:40:28.408Z,57.40
2022-09-12T10:42:56.497Z,56.60
2022-09-12T10:45:29.077Z,57.70
2022-09-12T10:48:04.169Z,58.30
2022-09-12T10:50:41.488Z,57.50
2022-09-12T10:53:18.206Z,56.70
2022-09-12T10:56:17.605Z,56.30
2022-09-12T10:59:03.006Z,56.10
2022-09-12T11:01:32.893Z,56.70
2022-09-12T11:04:10.251Z,57.30
2022-09-12T11:06:43.348Z,57.50
2022-09-12T11:09:16.589Z,57.20
2022-09-12T11:11:49.358Z,56.90
2022-09-12T11:14:25.287Z,55.80
2022-09-12T11:17:26.045Z,55.80
2022-09-12T11:20:28.397Z,56.30
2022-09-12T11:23:09.086Z,54.70
2022-09-12T11:25:48.111Z,53.00
2022-09-12T11:28:38.504Z,53.60
2022-09-12T11:31:05.372Z,52.80
2022-09-12T11:33:43.099Z,51.30
2022-09-12T11:36:27.458Z,51.20
2022-09-12T11:39:01.952Z,51.70
2022-09-12T11:41:34.820Z,50.40
2022-09-12T11:44:11.661Z,49.90
2022-09-12T11:46:40.013Z,50.10
2022-09-12T11:49:11.839Z,50.60
2022-09-12T11:51:38.593Z,50.40
2022-09-12T11:54:12.917Z,49.00
2022-09-12T11:56:42.979Z,48.60
2022-09-12T11:59:15.607Z,48.30
2022-09-12T12:01:48.510Z,48.60
2022-09-12T12:04:18.125Z,48.30
2022-09-12T12:07:05.872Z,48.40
2022-09-12T12:09:33.158Z,48.40
2022-09-12T12:12:02.825Z,48.00
2022-09-12T12:14:33.016Z,48.00
2022-09-12T12:16:59.848Z,48.40
2022-09-12T12:19:26.948Z,49.60
2022-09-12T12:21:53.853Z,48.80
2022-09-12T12:24:25.036Z,48.40
2022-09-12T12:26:57.368Z,47.20
2022-09-12T12:29:24.175Z,46.90
2022-09-12T12:32:01.948Z,46.20
2022-09-12T12:34:36.028Z,46.20
2022-09-12T12:37:15.150Z,45.60
2022-09-12T12:39:41.982Z,45.50
2022-09-12T12:42:08.890Z,47.00
2022-09-12T12:45:02.263Z,46.20
2022-09-12T12:47:33.624Z,45.90
2022-09-12T12:50:02.689Z,46.70
2022-09-12T12:52:31.216Z,46.40
2022-09-12T12:55:00.187Z,46.60
2022-09-12T13:00:21.214Z,46.30
2022-09-12T13:02:56.203Z,46.30
2022-09-12T13:05:24.629Z,45.70
2022-09-12T13:07:57.253Z,45.00
2022-09-12T13:10:27.073Z,45.20
2022-09-12T13:12:53.989Z,44.80
2022-09-12T13:15:36.191Z,43.90
2022-09-12T13:18:04.488Z,43.80
2022-09-12T13:20:38.073Z,44.10
2022-09-12T13:23:05.032Z,44.50
2022-09-12T13:25:31.801Z,44.70
2022-09-12T13:27:59.918Z,44.50
2022-09-12T13:30:28.495Z,44.40
2022-09-12T13:32:57.494Z,44.60
2022-09-12T13:35:32.900Z,44.20
2022-09-12T13:38:38.556Z,42.80
2022-09-12T13:41:08.417Z,42.50
2022-09-12T13:43:40.720Z,42.40
2022-09-12T13:46:09.120Z,42.40
2022-09-12T13:48:36.009Z,42.50
2022-09-12T13:51:03.934Z,42.50
2022-09-12T13:53:43.048Z,43.00
2022-09-12T13:56:15.711Z,42.20
2022-09-12T13:58:50.844Z,42.20
2022-09-12T14:01:17.867Z,42.20
2022-09-12T14:04:13.885Z,41.90
2022-09-12T14:06:46.538Z,42.20
2022-09-12T14:09:15.013Z,41.90
2022-09-12T14:11:41.744Z,41.70
2022-09-12T14:14:17.568Z,40.70
2022-09-12T14:16:44.457Z,39.90
2022-09-12T14:19:12.360Z,39.60
2022-09-12T14:21:39.238Z,40.10
2022-09-12T14:24:08.501Z,39.90
2022-09-12T14:26:36.761Z,40.20
2022-09-12T14:29:07.689Z,39.90
2022-09-12T14:32:19.588Z,40.00
2022-09-12T14:38:08.023Z,39.80
2022-09-12T14:40:41.048Z,38.20
2022-09-12T14:43:16.407Z,38.30
2022-09-12T14:45:43.365Z,39.00
2022-09-12T14:48:18.795Z,38.80
2022-09-12T14:50:49.079Z,38.90
2022-09-12T14:53:18.909Z,39.10
2022-09-12T14:55:50.133Z,38.70
2022-09-12T14:58:27.258Z,39.10
2022-09-12T15:00:55.514Z,39.10
2022-09-12T15:03:30.293Z,38.80
2022-09-12T15:05:57.699Z,39.40
2022-09-12T15:08:25.300Z,39.70
2022-09-12T15:10:52.703Z,38.90
2022-09-12T15:13:20.880Z,39.10
2022-09-12T15:15:57.990Z,39.50
2022-09-12T15:18:26.249Z,39.90
2022-09-12T15:21:02.866Z,39.70
2022-09-12T15:23:31.795Z,39.50
2022-09-12T15:25:58.783Z,39.00
2022-09-12T15:28:26.855Z,39.50
2022-09-12T15:30:55.026Z,39.50
2022-09-12T15:33:24.001Z,39.30
2022-09-12T15:35:51.268Z,39.50
2022-09-12T15:38:21.056Z,39.00
2022-09-12T15:40:54.822Z,38.90
2022-09-12T15:43:22.775Z,38.60
2022-09-12T15:45:51.505Z,38.00
2022-09-12T15:48:18.971Z,38.20
2022-09-12T15:50:45.820Z,38.20
2022-09-12T15:53:16.505Z,38.50
2022-09-12T15:55:44.105Z,38.60
2022-09-12T15:58:10.993Z,39.00
2022-09-12T16:00:37.944Z,38.50
2022-09-12T16:03:04.960Z,39.40
2022-09-12T16:05:32.345Z,39.30
2022-09-12T16:07:59.115Z,39.50
2022-09-12T16:10:27.512Z,39.90
2022-09-12T16:12:55.004Z,39.90
2022-09-12T16:15:23.158Z,39.70
2022-09-12T16:17:50.066Z,39.70
2022-09-12T16:20:17.053Z,40.30
2022-09-12T16:22:43.825Z,40.50
2022-09-12T16:25:10.713Z,40.80
2022-09-12T16:27:37.690Z,40.50
2022-09-12T16:30:06.652Z,41.00
2022-09-12T16:32:33.476Z,40.80
2022-09-12T16:35:00.692Z,40.90
2022-09-12T16:37:27.971Z,40.80
2022-09-12T16:39:54.939Z,41.60
2022-09-12T16:42:21.829Z,42.00
2022-09-12T16:44:48.632Z,42.10
2022-09-12T16:47:15.359Z,42.10
2022-09-12T16:49:42.280Z,42.40
2022-09-12T16:52:09.432Z,42.70
2022-09-12T16:54:36.261Z,43.10
2022-09-12T16:57:05.300Z,43.40
2022-09-12T16:59:32.661Z,43.80
2022-09-12T17:01:59.767Z,44.60
2022-09-12T17:04:26.611Z,45.30
2022-09-12T17:06:53.473Z,46.40
2022-09-12T17:09:21.430Z,46.20
2022-09-12T17:11:49.591Z,47.00
2022-09-12T17:14:16.808Z,47.80
2022-09-12T17:16:49.251Z,48.20
2022-09-12T17:19:22.139Z,48.80
2022-09-12T17:21:50.069Z,49.30
2022-09-12T17:24:17.543Z,50.30
2022-09-12T17:26:44.901Z,51.00
2022-09-12T17:29:12.667Z,51.60
2022-09-12T17:31:40.102Z,52.20
2022-09-12T17:34:07.255Z,52.50
2022-09-12T17:36:34.041Z,53.00
2022-09-12T17:39:01.903Z,53.20
2022-09-12T17:41:31.854Z,53.80
2022-09-12T17:43:59.778Z,54.20
2022-09-12T17:46:30.118Z,54.40
2022-09-12T17:48:58.344Z,54.70
2022-09-12T17:51:25.897Z,55.00
2022-09-12T17:53:59.748Z,55.00
2022-09-12T17:56:28.092Z,55.50
2022-09-12T17:58:56.259Z,55.80
2022-09-12T18:01:42.108Z,56.20
2022-09-12T18:04:10.468Z,56.60
2022-09-12T18:06:37.516Z,57.10
2022-09-12T18:09:14.833Z,57.50
2022-09-12T18:11:41.696Z,57.80
2022-09-12T18:14:12.356Z,58.00
2022-09-12T18:16:41.234Z,58.20
2022-09-12T18:19:08.245Z,58.10
2022-09-12T18:21:35.444Z,57.70
2022-09-12T18:24:06.172Z,58.00
2022-09-12T18:26:33.533Z,58.40
2022-09-12T18:29:00.403Z,58.70
2022-09-12T18:31:28.949Z,58.80
2022-09-12T18:33:56.311Z,59.50
2022-09-12T18:36:23.413Z,58.50
2022-09-12T18:38:50.381Z,58.70
2022-09-12T18:41:22.112Z,58.50
2022-09-12T18:43:49.524Z,58.80
2022-09-12T18:46:17.866Z,58.80
2022-09-12T18:48:45.307Z,59.10
2022-09-12T18:51:19.384Z,59.10
2022-09-12T18:53:54.532Z,59.20
2022-09-12T18:56:23.204Z,59.30
2022-09-12T18:58:52.304Z,59.60
2022-09-12T19:01:20.850Z,59.70
2022-09-12T19:03:48.113Z,59.40
2022-09-12T19:06:17.800Z,59.40
2022-09-12T19:08:45.332Z,59.00
2022-09-12T19:11:12.615Z,59.20
2022-09-12T19:13:40.697Z,59.40
2022-09-12T19:16:12.064Z,59.60
2022-09-12T19:18:40.084Z,59.50
2022-09-12T19:21:11.257Z,59.60
2022-09-12T19:23:38.454Z,59.80
2022-09-12T19:26:10.536Z,60.00
2022-09-12T19:28:37.854Z,60.10
2022-09-12T19:31:08.910Z,60.10
2022-09-12T19:33:36.861Z,60.40
2022-09-12T19:36:27.310Z,60.30
2022-09-12T19:38:55.569Z,60.50
2022-09-12T19:41:25.781Z,60.50
2022-09-12T19:43:55.794Z,60.60
2022-09-12T19:46:23.683Z,60.70
2022-09-12T19:48:50.761Z,60.90
2022-09-12T19:51:17.852Z,61.00
2022-09-12T19:53:48.097Z,60.90
2022-09-12T19:56:20.447Z,61.20
2022-09-12T19:58:52.049Z,61.10
2022-09-12T20:01:28.269Z,61.20
2022-09-12T20:04:02.719Z,61.70
2022-09-12T20:09:44.339Z,61.80
2022-09-12T20:12:14.519Z,61.80
2022-09-12T20:14:53.344Z,61.80
2022-09-12T20:17:20.373Z,62.40
2022-09-12T20:20:01.948Z,62.50
2022-09-12T20:22:29.003Z,62.80
2022-09-12T20:24:56.407Z,62.50
2022-09-12T20:27:23.632Z,62.80
2022-09-12T20:29:52.993Z,62.80
2022-09-12T20:32:27.792Z,62.80
2022-09-12T20:34:56.711Z,62.90
2022-09-12T20:37:24.169Z,62.70
2022-09-12T20:39:56.508Z,62.80
2022-09-12T20:42:26.610Z,63.10
2022-09-12T20:44:53.915Z,63.10
2022-09-12T20:47:20.843Z,63.20
2022-09-12T20:49:47.666Z,63.30
2022-09-12T20:52:14.471Z,63.30
2022-09-12T20:54:41.309Z,63.40
2022-09-12T20:57:08.062Z,63.30
2022-09-12T20:59:35.248Z,63.60
2022-09-12T21:02:02.182Z,63.80
2022-09-12T21:04:29.021Z,63.80
2022-09-12T21:06:55.783Z,63.60
2022-09-12T21:09:23.046Z,63.60
2022-09-12T21:11:50.416Z,63.80
2022-09-12T21:14:17.247Z,63.80
2022-09-12T21:16:43.987Z,63.90
2022-09-12T21:19:10.869Z,64.00
2022-09-12T21:21:37.577Z,64.20
2022-09-12T21:24:04.502Z,64.30
2022-09-12T21:26:34.005Z,64.40
2022-09-12T21:29:00.895Z,64.20
2022-09-12T21:31:27.657Z,64.50
2022-09-12T21:33:54.639Z,64.50
2022-09-12T21:36:21.493Z,64.80
2022-09-12T21:38:48.236Z,64.60
2022-09-12T21:41:16.223Z,64.80
2022-09-12T21:43:43.359Z,64.60
2022-09-12T21:46:10.948Z,64.80
2022-09-12T21:48:38.177Z,65.10
2022-09-12T21:51:05.323Z,65.00
2022-09-12T21:53:32.286Z,65.10
2022-09-12T21:56:07.314Z,65.30
2022-09-12T21:58:34.494Z,65.40
2022-09-12T22:01:01.538Z,65.40
2022-09-12T22:03:28.963Z,65.50
2022-09-12T22:06:03.011Z,65.70
2022-09-12T22:08:30.834Z,65.80
2022-09-12T22:10:58.971Z,65.60
2022-09-12T22:13:26.199Z,65.80
2022-09-12T22:15:53.174Z,65.90
2022-09-12T22:18:20.151Z,66.00
2022-09-12T22:20:46.890Z,66.20
2022-09-12T22:23:32.500Z,66.30
2022-09-12T22:25:59.959Z,66.20
2022-09-12T22:28:26.723Z,66.30
2022-09-12T22:30:54.792Z,66.40
2022-09-12T22:33:21.565Z,66.40
2022-09-12T22:35:48.572Z,66.30
2022-09-12T22:38:15.312Z,66.50
2022-09-12T22:40:42.181Z,66.80
2022-09-12T22:43:08.932Z,67.00
2022-09-12T22:45:35.821Z,67.10
2022-09-12T22:48:05.068Z,67.10
2022-09-12T22:50:35.579Z,66.90
2022-09-12T22:53:02.316Z,67.20
2022-09-12T22:55:29.132Z,67.20
2022-09-12T22:57:56.197Z,67.30
2022-09-12T23:00:23.695Z,67.20
2022-09-12T23:02:50.498Z,67.30
2022-09-12T23:05:17.375Z,67.20
2022-09-12T23:07:44.082Z,66.90
2022-09-12T23:10:10.833Z,66.70
2022-09-12T23:12:37.665Z,66.50
2022-09-12T23:15:04.771Z,66.70
2022-09-12T23:17:32.671Z,66.80
2022-09-12T23:20:01.570Z,67.00
2022-09-12T23:22:28.324Z,67.10
2022-09-12T23:24:55.081Z,67.30
2022-09-12T23:27:21.888Z,67.60
2022-09-12T23:29:52.278Z,67.60
2022-09-12T23:32:20.072Z,67.60
2022-09-12T23:34:49.939Z,67.80
2022-09-12T23:37:16.710Z,67.80
2022-09-12T23:39:43.686Z,67.70
2022-09-12T23:42:10.693Z,67.50
2022-09-12T23:44:37.410Z,67.40
2022-09-12T23:47:04.348Z,67.60
2022-09-12T23:49:31.132Z,67.80
2022-09-12T23:51:57.932Z,67.80
2022-09-12T23:54:25.203Z,67.90
2022-09-12T23:56:52.039Z,68.10
2022-09-12T23:59:18.882Z,68.10
